Hollister, Missouri
Current Conditions -  °F | °C
As of 9:47 AM on Saturday 20 Dec 2014 (Local Time) from KBBG Reporting Station
Moderate Fog Moderate Fog  
Wind Chill: 39°   Ceiling: 200
Heat Index: 39°   Visibility: 0.12mi
Dew Point: 37°   Wind: 0mph
Humidity: 93%   Direction: NA
Pressure: 30.25"   Gusts: NA
Location:  36.62°N, 93.22°W
Report Text: KBBG 201547Z 00000KT 1/8SM FG OVC002 04/03 A3025
Loading
Personal Weather Stations






























Interactive Weather Map New forecast layout! Learn more

10-Day Weather Forecast

Advertisements
Track Severe Weather on mobile